Time;durP1;ratioP1;P1;durP2;ratioP2;P2;SDS_P1;SDS_P2;PMS_P1;PMS_P2;Temp;Humidity;BMP_temperature;BMP_pressure;BME280_temperature;BME280_humidity;BME280_pressure;Samples;Min_cycle;Max_cycle;Signal;HPM_P1;HPM_P2
2021/03/26 00:02:13;;;;;;;5.75;1.63;;;9.30;99.90;;;;;;4994611;28;20052;-85
2021/03/26 00:04:39;;;;;;;5.60;1.60;;;9.30;99.90;;;;;;4994482;28;20133;-84
2021/03/26 00:07:06;;;;;;;7.38;2.80;;;9.30;99.90;;;;;;4996531;28;20054;-85
2021/03/26 00:09:35;;;;;;;9.05;2.05;;;9.30;99.90;;;;;;4998025;28;20498;-85
2021/03/26 00:12:04;;;;;;;8.23;2.47;;;9.30;99.90;;;;;;5003018;28;20045;-87
2021/03/26 00:14:31;;;;;;;9.65;2.22;;;9.30;99.90;;;;;;5017926;28;20076;-82
2021/03/26 00:16:57;;;;;;;10.57;2.45;;;9.30;99.90;;;;;;5017357;28;20062;-79
2021/03/26 00:19:24;;;;;;;4.20;1.15;;;9.20;99.90;;;;;;5017485;28;20049;-83
2021/03/26 00:21:50;;;;;;;10.82;1.95;;;9.20;99.90;;;;;;5017123;28;20447;-81
2021/03/26 00:24:17;;;;;;;15.60;2.28;;;;;;;;;;5017487;28;20053;-83
2021/03/26 00:26:45;;;;;;;8.65;2.30;;;9.20;99.90;;;;;;5017340;28;20053;-81
2021/03/26 00:29:11;;;;;;;9.68;1.80;;;9.20;99.90;;;;;;5017426;28;20348;-83
2021/03/26 00:31:39;;;;;;;6.43;2.00;;;9.20;99.90;;;;;;5017483;28;20050;-83
2021/03/26 00:34:06;;;;;;;5.65;1.80;;;9.20;99.90;;;;;;5017400;28;20045;-83
2021/03/26 00:36:34;;;;;;;12.25;2.03;;;9.20;99.90;;;;;;5017172;28;20049;-82
2021/03/26 00:39:01;;;;;;;10.98;1.98;;;9.20;99.90;;;;;;5017557;28;20058;-80
2021/03/26 00:41:27;;;;;;;3.95;2.08;;;9.20;99.90;;;;;;5016897;28;20050;-82
2021/03/26 00:43:55;;;;;;;6.80;2.13;;;9.20;99.90;;;;;;5017073;28;20378;-83
2021/03/26 00:46:23;;;;;;;7.80;1.77;;;9.20;99.90;;;;;;5017415;28;20054;-83
2021/03/26 00:48:49;;;;;;;4.55;1.85;;;9.10;99.90;;;;;;5016949;28;20049;-83
2021/03/26 00:51:16;;;;;;;8.70;3.28;;;9.20;99.90;;;;;;5016976;28;20046;-83
2021/03/26 00:53:42;;;;;;;5.40;1.65;;;9.10;99.90;;;;;;4998426;28;20052;-82
2021/03/26 00:56:09;;;;;;;13.48;2.17;;;9.10;99.90;;;;;;4997193;28;20073;-82
2021/03/26 00:58:36;;;;;;;7.15;1.98;;;9.10;99.90;;;;;;4997250;28;20084;-84
2021/03/26 01:01:03;;;;;;;10.50;2.77;;;9.10;99.90;;;;;;4997147;28;20364;-83
2021/03/26 01:03:30;;;;;;;9.00;2.50;;;9.10;99.90;;;;;;4997091;28;20058;-85
2021/03/26 01:05:59;;;;;;;10.05;3.30;;;9.10;99.90;;;;;;4997244;28;20104;-83
2021/03/26 01:08:26;;;;;;;5.43;1.83;;;9.10;99.90;;;;;;4996950;28;20058;-82
2021/03/26 01:10:54;;;;;;;9.75;2.83;;;9.10;99.90;;;;;;4997072;28;20451;-86
2021/03/26 01:13:21;;;;;;;10.50;2.78;;;9.10;99.90;;;;;;4997056;28;20047;-85
2021/03/26 01:15:48;;;;;;;8.95;2.83;;;9.00;99.90;;;;;;4996945;28;20050;-79
2021/03/26 01:18:20;;;;;;;9.75;3.00;;;9.00;99.90;;;;;;4996586;28;20475;-79
2021/03/26 01:20:46;;;;;;;13.65;2.78;;;9.10;99.90;;;;;;4996911;28;20054;-81
2021/03/26 01:23:13;;;;;;;7.97;1.90;;;9.00;99.90;;;;;;4996641;28;20344;-79
2021/03/26 01:25:40;;;;;;;9.27;2.15;;;9.00;99.90;;;;;;4997004;28;20050;-83
2021/03/26 01:28:07;;;;;;;8.73;1.85;;;9.00;99.90;;;;;;4996915;28;20058;-79
2021/03/26 01:30:34;;;;;;;7.28;2.30;;;9.00;99.90;;;;;;4996846;28;20058;-82
2021/03/26 01:33:01;;;;;;;9.50;2.50;;;9.00;99.90;;;;;;4996807;28;20125;-80
2021/03/26 01:35:29;;;;;;;7.05;2.40;;;9.00;99.90;;;;;;4996509;28;20108;-82
2021/03/26 01:37:55;;;;;;;13.23;2.80;;;9.00;99.90;;;;;;4996431;28;20061;-82
2021/03/26 01:40:24;;;;;;;8.48;2.53;;;9.00;99.90;;;;;;4996484;28;20364;-82
2021/03/26 01:42:51;;;;;;;8.55;2.53;;;8.90;99.90;;;;;;4996295;28;20055;-82
2021/03/26 01:45:19;;;;;;;7.82;3.30;;;8.90;99.90;;;;;;4996192;28;20056;-81
2021/03/26 01:47:46;;;;;;;16.40;3.88;;;8.90;99.90;;;;;;4996313;28;20058;-82
2021/03/26 01:50:14;;;;;;;8.73;2.90;;;8.90;99.90;;;;;;4996215;28;20057;-81
2021/03/26 01:52:41;;;;;;;6.47;2.60;;;8.90;99.90;;;;;;4996332;28;20042;-83
2021/03/26 01:55:09;;;;;;;9.30;2.45;;;8.90;99.90;;;;;;4996445;28;20058;-82
2021/03/26 01:57:36;;;;;;;5.57;2.80;;;8.90;99.90;;;;;;4996484;28;20119;-82
2021/03/26 02:00:04;;;;;;;11.93;2.45;;;8.90;99.90;;;;;;4996298;28;20112;-79
2021/03/26 02:02:31;;;;;;;10.63;2.63;;;8.90;99.90;;;;;;4996356;28;20046;-80
2021/03/26 02:04:57;;;;;;;10.93;2.63;;;8.90;99.90;;;;;;4995939;28;20061;-84
2021/03/26 02:07:24;;;;;;;10.73;2.47;;;8.90;99.90;;;;;;4995962;28;20060;-84
2021/03/26 02:09:52;;;;;;;8.23;2.47;;;8.80;99.90;;;;;;4996057;28;20109;-83
2021/03/26 02:12:20;;;;;;;10.80;2.40;;;8.80;99.90;;;;;;4996151;28;20057;-86
2021/03/26 02:14:48;;;;;;;7.35;2.42;;;8.80;99.90;;;;;;4995779;28;20139;-79
2021/03/26 02:17:15;;;;;;;6.75;2.30;;;8.80;99.90;;;;;;4995529;28;20062;-87
2021/03/26 02:19:43;;;;;;;5.78;2.00;;;8.80;99.90;;;;;;4995985;28;20050;-84
2021/03/26 02:22:10;;;;;;;7.75;2.80;;;8.80;99.90;;;;;;4995435;28;20052;-84
2021/03/26 02:24:38;;;;;;;4.65;2.30;;;8.80;99.90;;;;;;4995958;28;20414;-83
2021/03/26 02:27:11;;;;;;;9.32;2.92;;;8.80;99.90;;;;;;4995772;28;20046;-83
2021/03/26 02:29:37;;;;;;;6.78;2.72;;;8.80;99.90;;;;;;4995102;28;20062;-84
2021/03/26 02:32:06;;;;;;;14.70;2.85;;;8.80;99.90;;;;;;4995658;28;20381;-82
2021/03/26 02:34:33;;;;;;;6.60;2.65;;;8.80;99.90;;;;;;4995873;28;20050;-84
2021/03/26 02:37:00;;;;;;;9.63;2.75;;;8.80;99.90;;;;;;4995356;28;20061;-84
2021/03/26 02:39:31;;;;;;;6.13;2.67;;;8.80;99.90;;;;;;4995491;28;20054;-83
2021/03/26 02:42:00;;;;;;;5.78;2.28;;;8.80;99.90;;;;;;4995293;28;20058;-86
2021/03/26 02:44:32;;;;;;;7.93;2.25;;;8.70;99.90;;;;;;4995355;28;20061;-83
2021/03/26 02:47:05;;;;;;;9.30;2.72;;;8.80;99.90;;;;;;4995402;28;20058;-84
2021/03/26 02:49:36;;;;;;;9.38;3.17;;;8.80;99.90;;;;;;4995405;28;20058;-83
2021/03/26 02:52:07;;;;;;;6.15;1.73;;;8.70;99.90;;;;;;4995013;28;20046;-84
2021/03/26 02:54:36;;;;;;;13.15;2.70;;;8.70;99.90;;;;;;4995506;28;20054;-85
2021/03/26 02:57:06;;;;;;;10.88;2.40;;;8.70;99.90;;;;;;4995396;28;20054;-83
2021/03/26 02:59:35;;;;;;;7.43;2.63;;;8.70;99.90;;;;;;4995363;28;20054;-85
2021/03/26 03:02:02;;;;;;;12.25;3.70;;;8.70;99.90;;;;;;4994899;28;20046;-85
2021/03/26 03:04:30;;;;;;;12.35;3.03;;;8.70;99.90;;;;;;4995186;28;20065;-84
2021/03/26 03:06:58;;;;;;;8.13;2.38;;;8.70;99.90;;;;;;4994976;28;20467;-84
2021/03/26 03:09:25;;;;;;;9.88;3.38;;;8.70;99.90;;;;;;4995007;28;20137;-85
2021/03/26 03:11:54;;;;;;;9.80;2.08;;;8.70;99.90;;;;;;4995039;28;20046;-85
2021/03/26 03:14:23;;;;;;;12.25;1.95;;;8.70;99.90;;;;;;4995405;28;20082;-85
2021/03/26 03:16:54;;;;;;;9.13;2.10;;;8.70;99.90;;;;;;4994885;28;20172;-85
2021/03/26 03:19:28;;;;;;;7.80;1.75;;;8.70;99.90;;;;;;4994935;28;20046;-84
2021/03/26 03:21:57;;;;;;;8.15;2.03;;;8.80;99.90;;;;;;4994663;28;20043;-85
2021/03/26 03:24:25;;;;;;;9.85;2.53;;;8.70;99.90;;;;;;4995118;28;20054;-85
2021/03/26 03:26:56;;;;;;;6.30;2.38;;;8.80;99.90;;;;;;4994988;28;20054;-85
2021/03/26 03:29:28;;;;;;;5.90;2.05;;;8.80;99.90;;;;;;4994862;28;20054;-85
2021/03/26 03:31:56;;;;;;;7.15;1.98;;;8.80;99.90;;;;;;4994851;28;20049;-85
2021/03/26 03:34:29;;;;;;;7.85;1.80;;;8.80;99.90;;;;;;4994842;28;20391;-86
2021/03/26 03:37:02;;;;;;;9.20;2.92;;;8.80;99.90;;;;;;4995142;28;20050;-85
2021/03/26 03:39:29;;;;;;;9.68;2.67;;;8.80;99.90;;;;;;4994595;28;20112;-83
2021/03/26 03:41:59;;;;;;;7.03;2.45;;;8.90;99.90;;;;;;4996423;28;20061;-85
2021/03/26 03:44:31;;;;;;;10.27;2.42;;;8.90;99.90;;;;;;4998789;28;20120;-82
2021/03/26 03:47:02;;;;;;;16.25;2.22;;;8.90;99.90;;;;;;4998607;28;20192;-86
2021/03/26 03:49:32;;;;;;;6.20;2.25;;;8.90;99.90;;;;;;4998494;28;20054;-86
2021/03/26 03:52:02;;;;;;;10.20;2.45;;;8.90;99.90;;;;;;4998435;28;20054;-86
2021/03/26 03:54:31;;;;;;;11.30;1.95;;;8.90;99.90;;;;;;4999020;28;20053;-85
2021/03/26 03:56:59;;;;;;;14.27;2.92;;;8.90;99.90;;;;;;4998584;28;20472;-86
2021/03/26 03:59:40;;;;;;;5.40;1.90;;;8.90;99.90;;;;;;4998378;28;20054;-86
2021/03/26 04:02:10;;;;;;;8.98;1.58;;;8.90;99.90;;;;;;4998293;28;20090;-87
2021/03/26 04:04:40;;;;;;;5.85;1.98;;;9.00;99.90;;;;;;4998243;28;20049;-86
2021/03/26 04:07:08;;;;;;;5.88;1.45;;;9.00;99.90;;;;;;4998734;28;20419;-86
2021/03/26 04:09:37;;;;;;;15.13;2.33;;;8.90;99.90;;;;;;4998146;28;20401;-86
2021/03/26 04:12:05;;;;;;;8.00;2.17;;;8.90;99.90;;;;;;4998246;28;20062;-86
2021/03/26 04:14:36;;;;;;;15.32;2.17;;;8.90;99.90;;;;;;4997313;28;20051;-87
2021/03/26 04:17:04;;;;;;;7.18;2.03;;;8.90;99.90;;;;;;4997826;28;20058;-87
2021/03/26 04:19:33;;;;;;;10.10;1.92;;;8.90;99.90;;;;;;4997862;28;20145;-87
2021/03/26 04:22:02;;;;;;;9.93;3.05;;;8.90;99.90;;;;;;4997564;28;20103;-87
2021/03/26 04:24:31;;;;;;;6.35;1.77;;;9.00;99.90;;;;;;4997972;28;20054;-88
2021/03/26 04:27:00;;;;;;;8.38;1.83;;;8.90;99.90;;;;;;4997976;28;20054;-88
2021/03/26 04:29:28;;;;;;;8.43;2.05;;;8.90;99.90;;;;;;4998094;28;20064;-87
2021/03/26 04:31:59;;;;;;;9.07;2.25;;;9.00;99.90;;;;;;4998008;28;20054;-88
2021/03/26 04:34:25;;;;;;;7.75;1.92;;;9.00;99.90;;;;;;4997940;28;20054;-87
2021/03/26 04:36:58;;;;;;;7.55;1.80;;;9.00;99.90;;;;;;4997987;28;20050;-88
2021/03/26 04:39:39;;;;;;;11.50;2.30;;;9.10;99.90;;;;;;4997803;28;20089;-83
2021/03/26 04:42:09;;;;;;;14.90;1.60;;;9.10;99.90;;;;;;4997504;28;20046;-83
2021/03/26 04:44:43;;;;;;;5.80;1.83;;;9.10;99.90;;;;;;4997629;28;20050;-85
2021/03/26 04:47:15;;;;;;;4.78;1.20;;;9.10;99.90;;;;;;4997866;28;20451;-85
2021/03/26 04:49:44;;;;;;;6.55;1.45;;;9.10;99.90;;;;;;4997777;28;20061;-85
2021/03/26 04:52:14;;;;;;;11.95;2.10;;;9.10;99.90;;;;;;4996612;28;20042;-83
2021/03/26 04:54:44;;;;;;;5.38;1.52;;;9.10;99.90;;;;;;4997653;28;20093;-86
2021/03/26 04:57:12;;;;;;;8.07;1.95;;;9.10;99.90;;;;;;4996978;28;20467;-85
2021/03/26 04:59:51;;;;;;;9.90;1.77;;;9.10;99.90;;;;;;4997587;28;20050;-84
2021/03/26 05:02:18;;;;;;;9.65;3.65;;;9.00;99.90;;;;;;4997204;28;20046;-85
2021/03/26 05:04:45;;;;;;;7.15;1.50;;;9.00;99.90;;;;;;4997233;28;20383;-84
2021/03/26 05:07:14;;;;;;;6.07;2.22;;;9.00;99.90;;;;;;4997174;28;20077;-90
2021/03/26 05:09:42;;;;;;;7.00;1.80;;;9.00;99.90;;;;;;5014025;28;20132;-88
2021/03/26 05:12:11;;;;;;;8.77;2.13;;;9.00;99.90;;;;;;5010485;28;20054;-88
2021/03/26 05:14:40;;;;;;;15.18;2.58;;;9.00;99.90;;;;;;4997308;28;20054;-86
2021/03/26 05:17:10;;;;;;;4.70;1.20;;;8.90;99.90;;;;;;4996714;28;20069;-87
2021/03/26 05:19:40;;;;;;;5.25;2.58;;;8.90;99.90;;;;;;4997186;28;20050;-88
2021/03/26 05:22:25;;;;;;;7.82;2.47;;;8.80;99.90;;;;;;5001950;28;20052;-88
2021/03/26 05:24:54;;;;;;;6.90;1.55;;;8.80;99.90;;;;;;5016622;28;20042;-86
2021/03/26 05:27:21;;;;;;;7.05;1.70;;;8.80;99.90;;;;;;5016444;28;20057;-86
2021/03/26 05:29:48;;;;;;;6.53;1.50;;;8.80;99.90;;;;;;5016135;28;20060;-86
2021/03/26 05:32:16;;;;;;;15.98;2.53;;;8.70;99.90;;;;;;5016592;28;20091;-87
2021/03/26 05:34:48;;;;;;;10.05;3.30;;;8.80;99.90;;;;;;5016432;28;20071;-87
2021/03/26 05:37:19;;;;;;;6.68;2.00;;;8.80;99.90;;;;;;5016335;28;20065;-87
2021/03/26 05:39:46;;;;;;;9.48;2.20;;;8.70;99.90;;;;;;5016478;28;20061;-87
2021/03/26 05:42:45;;;;;;;5.07;1.75;;;8.80;99.90;;;;;;5016129;28;20060;-86
2021/03/26 05:45:36;;;;;;;9.30;2.17;;;8.90;99.90;;;;;;5016124;28;20053;-87
2021/03/26 05:48:24;;;;;;;8.52;1.63;;;8.80;99.90;;;;;;5016107;28;20363;-87
2021/03/26 05:50:56;;;;;;;8.85;1.75;;;8.90;99.90;;;;;;5013588;28;20123;-86
2021/03/26 05:53:28;;;;;;;11.65;2.83;;;8.90;99.90;;;;;;5015989;28;20050;-87
2021/03/26 05:55:58;;;;;;;15.25;2.33;;;8.90;99.90;;;;;;5015842;28;20060;-85
2021/03/26 05:58:33;;;;;;;10.05;2.10;;;8.90;99.90;;;;;;5016117;28;20053;-87
2021/03/26 06:01:17;;;;;;;16.35;2.15;;;8.90;99.90;;;;;;5016099;28;20050;-85
2021/03/26 06:04:01;;;;;;;16.58;2.80;;;8.90;99.90;;;;;;5015253;28;20050;-86
2021/03/26 06:06:46;;;;;;;7.40;2.50;;;8.80;99.90;;;;;;5015723;28;20050;-86
2021/03/26 06:09:37;;;;;;;16.85;3.85;;;8.80;99.90;;;;;;5015640;28;20050;-87
2021/03/26 06:12:21;;;;;;;8.77;3.50;;;8.80;99.90;;;;;;5015134;28;20136;-88
2021/03/26 06:15:24;;;;;;;11.02;2.67;;;8.70;99.90;;;;;;5013175;28;20057;-88
2021/03/26 06:18:32;;;;;;;9.07;2.90;;;8.80;99.90;;;;;;5015397;28;20054;-88
2021/03/26 06:21:17;;;;;;;5.55;2.65;;;8.80;99.90;;;;;;5000611;28;20137;-88
2021/03/26 06:24:10;;;;;;;;;;;8.80;99.90;;;;;;5015732;28;20053;-88
2021/03/26 06:27:00;;;;;;;10.35;2.83;;;8.80;99.90;;;;;;5015701;28;19929;-89
2021/03/26 06:29:38;;;;;;;8.55;2.90;;;8.80;99.90;;;;;;5015508;28;20062;-88
2021/03/26 06:32:46;;;;;;;9.73;3.00;;;8.80;99.90;;;;;;5015708;28;20107;-88
2021/03/26 06:35:48;;;;;;;12.07;2.92;;;8.80;99.90;;;;;;5015226;28;20064;-89
2021/03/26 06:38:59;;;;;;;9.98;3.25;;;8.80;99.90;;;;;;5015554;28;20080;-88
2021/03/26 06:41:33;;;;;;;8.18;3.10;;;8.80;99.90;;;;;;5008517;28;20413;-88
2021/03/26 06:44:43;;;;;;;7.70;2.53;;;8.80;99.90;;;;;;5015181;28;20050;-89
2021/03/26 06:47:12;;;;;;;10.77;2.85;;;8.80;99.90;;;;;;5015646;28;20373;-88
2021/03/26 06:49:48;;;;;;;8.80;2.17;;;8.80;99.90;;;;;;5015141;28;20517;-89
2021/03/26 06:52:20;;;;;;;13.07;2.75;;;8.80;99.90;;;;;;5014870;28;20049;-88
2021/03/26 06:55:07;;;;;;;8.70;2.20;;;8.80;99.90;;;;;;5015196;28;20053;-88
2021/03/26 06:58:00;;;;;;;4.63;1.92;;;8.80;99.90;;;;;;5014740;28;20601;-88
2021/03/26 07:00:29;;;;;;;8.93;1.80;;;;;;;;;;5015066;28;20394;-88
2021/03/26 07:03:07;;;;;;;7.20;2.85;;;9.00;99.90;;;;;;5014874;28;20045;-89
2021/03/26 07:05:57;;;;;;;9.25;2.03;;;9.00;99.90;;;;;;5014878;28;20122;-89
2021/03/26 07:08:32;;;;;;;5.18;2.17;;;9.10;99.90;;;;;;5015155;28;20381;-87
2021/03/26 07:11:08;;;;;;;6.90;2.00;;;9.20;99.90;;;;;;5014883;28;20077;-89
2021/03/26 07:14:02;;;;;;;10.52;2.13;;;9.20;99.90;;;;;;5014838;28;20128;-89
2021/03/26 07:16:47;;;;;;;12.13;2.25;;;9.20;99.90;;;;;;5011573;28;20141;-88
2021/03/26 07:19:22;;;;;;;7.85;2.08;;;9.40;99.90;;;;;;5014749;28;20049;-88
2021/03/26 07:22:02;;;;;;;9.57;1.80;;;9.40;99.90;;;;;;5014498;28;20042;-90
2021/03/26 07:24:55;;;;;;;6.72;1.15;;;9.50;99.90;;;;;;5014706;28;20119;-89
2021/03/26 07:27:25;;;;;;;10.27;2.42;;;9.60;99.90;;;;;;5014926;28;20060;-89
2021/03/26 07:30:21;;;;;;;4.82;1.27;;;9.60;99.90;;;;;;5014560;28;20466;-88
2021/03/26 07:32:57;;;;;;;7.18;2.08;;;9.70;99.90;;;;;;5005536;28;20054;-88
2021/03/26 07:35:50;;;;;;;5.38;1.67;;;9.70;99.90;;;;;;5014722;28;20046;-89
2021/03/26 07:38:26;;;;;;;6.90;2.40;;;9.80;99.90;;;;;;5014675;28;20475;-89
2021/03/26 07:41:00;;;;;;;10.25;1.67;;;9.80;99.90;;;;;;5014463;28;20065;-89
2021/03/26 07:43:52;;;;;;;5.95;1.52;;;9.80;99.90;;;;;;5014368;28;20050;-88
2021/03/26 07:46:43;;;;;;;7.40;1.65;;;9.80;99.90;;;;;;5014392;28;20107;-89
2021/03/26 07:49:15;;;;;;;10.02;2.67;;;9.70;99.90;;;;;;5014228;28;20077;-88
2021/03/26 07:51:43;;;;;;;9.98;2.83;;;9.80;99.90;;;;;;5014435;28;20092;-89
2021/03/26 07:54:27;;;;;;;9.25;1.80;;;9.70;99.90;;;;;;5013835;28;20064;-88
2021/03/26 07:57:19;;;;;;;16.02;1.65;;;9.80;99.90;;;;;;5012040;28;20050;-88
2021/03/26 08:00:29;;;;;;;10.02;1.95;;;9.80;99.90;;;;;;5014491;28;20225;-88
2021/03/26 08:03:23;;;;;;;12.02;2.28;;;10.30;99.90;;;;;;4953218;29;20396;-88
2021/03/26 08:05:55;;;;;;;9.65;2.20;;;10.20;99.90;;;;;;4954299;29;20055;-88
2021/03/26 08:08:46;;;;;;;9.35;2.53;;;10.20;99.90;;;;;;4954307;29;20444;-88
2021/03/26 08:11:22;;;;;;;9.68;1.83;;;10.30;99.90;;;;;;4954196;29;20047;-88
2021/03/26 08:14:09;;;;;;;9.73;3.30;;;10.40;99.90;;;;;;4954232;29;20047;-87
2021/03/26 08:17:07;;;;;;;10.35;1.95;;;10.30;99.90;;;;;;4954178;29;20070;-87
2021/03/26 08:19:38;;;;;;;10.45;1.83;;;10.20;99.90;;;;;;4954065;29;20051;-87
2021/03/26 08:22:14;;;;;;;8.38;3.30;;;10.10;99.90;;;;;;4953743;29;20051;-86
2021/03/26 08:24:54;;;;;;;10.90;1.90;;;9.90;99.90;;;;;;4953922;29;20059;-86
2021/03/26 08:27:29;;;;;;;7.10;1.65;;;9.70;99.90;;;;;;4954808;28;20066;-86
2021/03/26 08:30:05;;;;;;;2.97;1.10;;;9.60;99.90;;;;;;4957661;29;20117;-86
2021/03/26 08:32:54;;;;;;;12.13;3.25;;;9.40;99.90;;;;;;4957398;29;20086;-86
2021/03/26 08:36:02;;;;;;;9.23;1.52;;;9.30;99.90;;;;;;4957218;29;20055;-85
2021/03/26 08:38:36;;;;;;;6.03;1.65;;;9.20;99.90;;;;;;4930508;29;20058;-85
2021/03/26 08:41:03;;;;;;;8.13;1.83;;;9.10;99.90;;;;;;4957257;29;20062;-85
2021/03/26 08:43:31;;;;;;;10.52;1.65;;;9.10;99.90;;;;;;4956894;29;20150;-85
2021/03/26 08:46:02;;;;;;;11.65;1.77;;;9.00;99.90;;;;;;4957039;29;20159;-85
2021/03/26 08:48:34;;;;;;;8.32;1.55;;;9.00;99.90;;;;;;4956798;29;20507;-83
2021/03/26 08:51:33;;;;;;;11.75;1.33;;;8.90;99.90;;;;;;4957070;29;20515;-81
2021/03/26 08:54:05;;;;;;;7.05;1.25;;;8.70;99.90;;;;;;4942745;29;20055;-79
2021/03/26 08:56:39;;;;;;;7.93;1.20;;;8.70;99.90;;;;;;4956999;29;20047;-79
2021/03/26 08:59:27;;;;;;;7.65;0.75;;;8.50;99.90;;;;;;4957137;29;20121;-79
2021/03/26 09:02:12;;;;;;;9.18;0.82;;;8.40;99.90;;;;;;4970128;29;20061;-80
2021/03/26 09:05:15;;;;;;;5.20;0.87;;;8.10;99.90;;;;;;4977157;29;20090;-81
2021/03/26 09:07:50;;;;;;;7.97;0.50;;;7.80;99.90;;;;;;4978891;29;20296;-80
2021/03/26 09:10:27;;;;;;;6.55;0.77;;;7.60;99.90;;;;;;4978169;29;20524;-81
2021/03/26 09:13:05;;;;;;;5.22;0.85;;;7.40;99.90;;;;;;4984972;28;20095;-80
2021/03/26 09:15:41;;;;;;;10.85;0.88;;;7.30;99.90;;;;;;5040676;28;20114;-81
2021/03/26 09:18:15;;;;;;;6.13;0.68;;;7.30;99.90;;;;;;5040594;28;20098;-82
2021/03/26 09:20:43;;;;;;;11.10;1.15;;;7.30;99.90;;;;;;5040761;28;20046;-82
2021/03/26 10:02:22;;;;;;;3.90;0.60;;;7.20;99.90;;;;;;5433872;22;20034;-83
2021/03/26 10:04:52;;;;;;;4.45;0.90;;;7.10;99.90;;;;;;5038381;28;20050;-81
2021/03/26 10:07:28;;;;;;;1.35;0.70;;;7.10;99.90;;;;;;5029247;28;20046;-81
2021/03/26 10:10:43;;;;;;;3.10;0.73;;;7.20;99.90;;;;;;5020315;28;20061;-81
2021/03/26 10:12:49;;;;;;;2.88;0.60;;;7.30;99.90;;;;;;5004802;28;20046;-81
2021/03/26 10:15:21;;;;;;;2.58;0.70;;;7.30;99.90;;;;;;4996288;28;20054;-81
2021/03/26 10:17:57;;;;;;;8.10;1.23;;;7.30;99.90;;;;;;4995951;28;20046;-81
2021/03/26 10:20:27;;;;;;;4.15;0.70;;;7.30;99.90;;;;;;4995587;28;20054;-81
2021/03/26 10:23:06;;;;;;;2.20;0.60;;;7.40;99.90;;;;;;5006159;28;20061;-82
2021/03/26 10:25:35;;;;;;;3.15;0.70;;;7.30;99.90;;;;;;5015085;28;20054;-79
2021/03/26 10:28:10;;;;;;;7.93;0.80;;;7.40;99.90;;;;;;5015028;28;20406;-81
2021/03/26 10:30:38;;;;;;;1.52;0.52;;;7.50;99.90;;;;;;5015101;28;20058;-82
2021/03/26 10:33:06;;;;;;;14.63;0.77;;;7.60;99.90;;;;;;5014939;28;20119;-83
2021/03/26 10:35:33;;;;;;;5.35;0.90;;;7.80;99.90;;;;;;5015245;28;20054;-84
2021/03/26 10:38:01;;;;;;;1.45;0.47;;;7.90;99.90;;;;;;5015340;28;20056;-87
2021/03/26 10:40:29;;;;;;;1.80;0.50;;;8.00;99.90;;;;;;5014946;28;20356;-86
2021/03/26 10:43:04;;;;;;;1.88;0.65;;;8.00;99.90;;;;;;5014992;28;20378;-86
2021/03/26 10:45:37;;;;;;;2.10;0.40;;;8.20;99.90;;;;;;5014968;28;20050;-87
2021/03/26 10:48:06;;;;;;;3.97;0.80;;;8.20;99.90;;;;;;5014729;28;20064;-87
2021/03/26 10:51:07;;;;;;;2.00;0.60;;;8.10;99.90;;;;;;5014515;28;20050;-85
2021/03/26 10:53:36;;;;;;;6.28;0.90;;;8.10;99.90;;;;;;5014445;28;20085;-87
2021/03/26 10:56:06;;;;;;;8.88;0.88;;;8.10;99.90;;;;;;5014632;28;20050;-86
2021/03/26 10:58:34;;;;;;;6.15;0.65;;;8.20;99.90;;;;;;5014666;28;20049;-87
2021/03/26 11:01:04;;;;;;;2.13;0.68;;;8.20;99.90;;;;;;5014320;28;20533;-85
2021/03/26 11:03:36;;;;;;;10.73;0.68;;;8.30;99.90;;;;;;5014368;28;20129;-84
2021/03/26 11:06:09;;;;;;;4.13;0.73;;;8.30;99.90;;;;;;5014411;28;20046;-82
2021/03/26 11:08:42;;;;;;;4.57;1.08;;;8.20;99.90;;;;;;5014052;28;20471;-81
2021/03/26 11:11:47;;;;;;;5.93;0.73;;;8.20;99.90;;;;;;5014305;28;20068;-81
2021/03/26 11:14:43;;;;;;;10.68;1.00;;;8.20;99.90;;;;;;5007046;28;20049;-82
2021/03/26 11:17:21;;;;;;;7.32;0.80;;;8.20;99.90;;;;;;5014260;28;20049;-79
2021/03/26 11:20:05;;;;;;;3.17;0.70;;;8.20;99.90;;;;;;5014571;28;20054;-83
2021/03/26 11:22:32;;;;;;;11.73;1.20;;;8.20;99.90;;;;;;5014409;28;20049;-81
2021/03/26 11:25:04;;;;;;;6.22;0.90;;;8.20;99.90;;;;;;5014409;28;20046;-82
2021/03/26 11:27:35;;;;;;;3.10;0.65;;;8.30;99.90;;;;;;5014386;28;20111;-84
2021/03/26 11:30:25;;;;;;;2.97;0.45;;;8.40;99.90;;;;;;5014286;28;20085;-81
2021/03/26 11:32:56;;;;;;;3.10;0.47;;;8.40;99.90;;;;;;5014336;28;20375;-83
2021/03/26 11:35:23;;;;;;;5.68;1.02;;;8.50;99.90;;;;;;5014685;28;20057;-82
2021/03/26 11:37:51;;;;;;;3.53;1.45;;;8.60;99.90;;;;;;5014428;28;20491;-81
2021/03/26 11:40:21;;;;;;;3.67;0.70;;;8.60;99.90;;;;;;5014280;28;20459;-84
2021/03/26 11:42:51;;;;;;;4.13;0.77;;;8.60;99.90;;;;;;5014772;28;20050;-83
2021/03/26 11:45:27;;;;;;;5.25;0.75;;;8.60;99.90;;;;;;5014496;28;20058;-84
2021/03/26 11:47:57;;;;;;;4.00;0.95;;;8.70;99.90;;;;;;5014555;28;20049;-83
2021/03/26 11:50:27;;;;;;;3.47;0.65;;;8.70;99.90;;;;;;5014196;28;20054;-82
2021/03/26 11:53:16;;;;;;;4.35;0.60;;;8.70;99.90;;;;;;5014337;28;20050;-85
2021/03/26 11:55:45;;;;;;;4.95;0.60;;;8.70;99.90;;;;;;5014184;28;20049;-85
2021/03/26 11:58:15;;;;;;;3.92;0.90;;;8.70;99.90;;;;;;5013990;28;20058;-84
2021/03/26 12:00:42;;;;;;;5.97;0.80;;;8.70;99.90;;;;;;5014032;28;20060;-84
2021/03/26 12:03:15;;;;;;;3.08;0.60;;;8.60;99.90;;;;;;5016460;28;20079;-84
2021/03/26 12:06:02;;;;;;;4.55;0.32;;;8.30;99.90;;;;;;5018078;28;20062;-84
2021/03/26 12:08:30;;;;;;;3.30;0.43;;;8.20;99.90;;;;;;5017864;28;20065;-84
2021/03/26 12:11:00;;;;;;;3.60;0.43;;;8.00;99.90;;;;;;5017744;28;20053;-81
2021/03/26 12:13:30;;;;;;;3.40;0.70;;;7.80;99.90;;;;;;5018366;28;20050;-80
2021/03/26 12:16:01;;;;;;;8.25;1.10;;;7.80;99.90;;;;;;5019394;28;20434;-82
2021/03/26 12:18:31;;;;;;;3.63;0.63;;;7.60;99.90;;;;;;5027061;28;20098;-80
2021/03/26 12:21:14;;;;;;;9.25;2.40;;;7.40;99.90;;;;;;5038038;28;20046;-80
2021/03/26 12:23:44;;;;;;;2.67;0.77;;;7.30;99.90;;;;;;5039024;28;20053;-81
2021/03/26 12:26:22;;;;;;;4.00;0.95;;;7.30;99.90;;;;;;5037645;28;20058;-80
2021/03/26 12:29:10;;;;;;;2.45;1.38;;;7.30;99.90;;;;;;5036642;28;20075;-80
2021/03/26 12:31:43;;;;;;;1.15;0.57;;;7.40;99.90;;;;;;5034699;28;20046;-80
2021/03/26 12:34:16;;;;;;;2.78;0.60;;;7.30;99.90;;;;;;5036515;28;20050;-80
2021/03/26 12:36:46;;;;;;;7.03;1.63;;;7.40;99.90;;;;;;5032775;28;20050;-81
2021/03/26 12:39:14;;;;;;;5.82;2.60;;;7.50;99.90;;;;;;5033671;28;20046;-81
2021/03/26 12:41:46;;;;;;;7.93;3.25;;;7.50;99.90;;;;;;5037842;28;20082;-81
2021/03/26 12:44:25;;;;;;;4.85;1.50;;;7.70;99.90;;;;;;5036171;28;20069;-81
2021/03/26 12:47:30;;;;;;;3.75;1.15;;;7.60;99.90;;;;;;5039455;28;20106;-81
2021/03/26 12:50:06;;;;;;;10.90;1.08;;;7.80;99.90;;;;;;5025467;28;20064;-82
2021/03/26 12:52:57;;;;;;;7.15;0.80;;;7.90;99.90;;;;;;5030587;28;20060;-82
2021/03/26 12:55:33;;;;;;;3.63;0.90;;;7.90;99.90;;;;;;5035894;28;20153;-82
2021/03/26 12:58:14;;;;;;;1.38;0.65;;;8.10;99.90;;;;;;5037824;28;20084;-81
2021/03/26 13:00:42;;;;;;;4.82;0.75;;;8.10;99.90;;;;;;5023529;28;20478;-81
2021/03/26 13:03:15;;;;;;;2.53;0.32;;;8.20;99.90;;;;;;5019174;28;20128;-83
2021/03/26 13:05:43;;;;;;;4.70;0.98;;;8.20;99.90;;;;;;5017250;28;20053;-83
2021/03/26 13:08:13;;;;;;;8.00;0.63;;;8.30;99.90;;;;;;5017280;28;20050;-82
2021/03/26 13:10:58;;;;;;;4.80;0.60;;;8.30;99.90;;;;;;5017246;28;20042;-83
2021/03/26 13:13:32;;;;;;;1.17;0.32;;;8.40;99.90;;;;;;5017736;28;20065;-83
2021/03/26 13:16:20;;;;;;;6.78;0.75;;;8.40;99.90;;;;;;5017229;28;20378;-83
2021/03/26 13:18:54;;;;;;;3.45;0.90;;;8.70;99.90;;;;;;5018077;28;20068;-83
2021/03/26 13:21:35;;;;;;;1.33;0.93;;;8.70;99.90;;;;;;5018305;28;20053;-83
2021/03/26 13:24:26;;;;;;;6.13;0.40;;;8.70;99.90;;;;;;5017910;28;20042;-82
2021/03/26 13:27:13;;;;;;;6.63;1.00;;;8.70;99.90;;;;;;5018227;28;20068;-84
2021/03/26 13:29:41;;;;;;;2.60;0.47;;;8.70;99.90;;;;;;5016935;28;20149;-83
2021/03/26 13:32:09;;;;;;;4.03;0.70;;;8.70;99.90;;;;;;5017748;28;20057;-82
2021/03/26 13:34:37;;;;;;;4.38;0.63;;;8.70;99.90;;;;;;5021179;28;20085;-82
2021/03/26 13:37:06;;;;;;;5.03;0.52;;;8.80;99.90;;;;;;5022785;28;20123;-82
2021/03/26 13:39:40;;;;;;;5.30;1.08;;;8.90;99.90;;;;;;5034142;28;20050;-81
2021/03/26 13:45:00;;;;;;;1.95;0.70;;;9.10;99.90;;;;;;5537792;22;20089;-82
2021/03/26 13:55:42;;;;;;;4.93;0.80;;;9.10;99.90;;;;;;5156361;22;20126;-82
2021/03/26 13:58:32;;;;;;;6.07;0.50;;;9.10;99.90;;;;;;5029909;28;20141;-83
2021/03/26 14:01:11;;;;;;;5.30;0.60;;;;;;;;;;5031601;28;20062;-84
2021/03/26 14:03:40;;;;;;;4.70;0.90;;;;;;;;;;5039404;28;20086;-83
2021/03/26 14:12:45;;;;;;;4.38;1.05;;;;;;;;;;5263412;22;20054;-84
2021/03/26 14:15:19;;;;;;;3.38;0.63;;;;;;;;;;5026464;28;20489;-84
2021/03/26 14:17:48;;;;;;;6.63;0.80;;;;;;;;;;5028092;28;20081;-84
2021/03/26 14:20:20;;;;;;;4.90;0.70;;;9.40;99.90;;;;;;5024534;28;20106;-82
2021/03/26 14:22:53;;;;;;;3.00;0.63;;;9.30;99.90;;;;;;5016431;28;20124;-84
2021/03/26 14:25:25;;;;;;;4.50;0.77;;;9.30;99.90;;;;;;5017551;28;20045;-79
2021/03/26 14:28:12;;;;;;;8.15;1.02;;;9.30;99.90;;;;;;5018539;28;20083;-82
2021/03/26 14:30:44;;;;;;;3.78;0.47;;;9.30;99.90;;;;;;5016509;28;20096;-77
2021/03/26 14:33:36;;;;;;;5.55;0.50;;;9.20;99.90;;;;;;5016559;28;20052;-83